Wan Hai 273 — 9V7586 — position and weather

sailwx.info

Track history (hours):
 
Tides and Currents Weather Stations Pressure Air Temp Water Temp Dewpoint Dewpoint Depression Visibility Wind Speed Wind Dir Waves Ship Positions

Wan Hai 273

Last reported at 2017-Feb-06 00:20 UTC. Time now 2017-Feb-24 02:07 UTC.
Position N 22°20' E 114°07'.
Warning: this ship's position is 18 days out of date.

Length 172 m; draft 7.2 m.

Type: Cargo ship. MMSI: 566406000.

Date/timePositionNaut miles runAvg speedWind from/ knotsBaromVisibWave heightAir tempDewpointWater temp
2017-Feb-06 00:20N 22°20' E 114°07'69213.6
2017-Feb-03 21:29N 31°05' E 122°31'1313.6
2017-Feb-03 20:34N 31°07' E 122°16'1514.8
2017-Feb-03 19:33N 31°15' E 122°01'1414.3
2017-Feb-03 18:34N 31°19' E 121°45'5 4.8
2017-Feb-03 17:31N 31°20' E 121°39'0 0.0
2017-Feb-03 16:31N 31°20' E 121°39'0 0.0
2017-Feb-03 15:31N 31°20' E 121°39'0 0.0
2017-Feb-03 14:31N 31°20' E 121°39'0 0.0
2017-Feb-03 13:31N 31°20' E 121°39'0 0.0
2017-Feb-03 12:31N 31°20' E 121°39'0 0.0
2017-Feb-03 11:31N 31°20' E 121°39'0 0.0
2017-Feb-03 10:31N 31°20' E 121°39'0 0.0
2017-Feb-03 09:31N 31°20' E 121°39'0 0.0
2017-Feb-03 08:31N 31°20' E 121°39'0 0.0
2017-Feb-03 07:31N 31°20' E 121°39'0 0.0
2017-Feb-03 06:28N 31°20' E 121°39'2 2.4
2017-Feb-03 05:34N 31°20' E 121°42'1111.4
2017-Feb-03 04:33N 31°16' E 121°54'1010.1
2017-Feb-03 03:33N 31°14' E 122°06'8 8.1
2017-Feb-03 02:33N 31°09' E 122°14'  
2017-Jan-31 20:23N 34°60' E 139°31'1518.6
2017-Jan-31 19:33N 35°10' E 139°45'1212.1
2017-Jan-31 18:33N 35°22' E 139°42'5 4.8
2017-Jan-31 17:33N 35°26' E 139°41'0 0.0
2017-Jan-31 16:32N 35°26' E 139°41'0 0.0
2017-Jan-31 15:32N 35°26' E 139°41'0 0.0
2017-Jan-31 14:32N 35°26' E 139°41'0 0.0
2017-Jan-31 13:32N 35°26' E 139°41'0 0.0
2017-Jan-31 12:32N 35°26' E 139°41'0 0.0
2017-Jan-31 11:32N 35°26' E 139°41'0 0.0
2017-Jan-31 10:32N 35°26' E 139°41'0 0.0
2017-Jan-31 09:32N 35°26' E 139°41'0 0.0
2017-Jan-31 08:32N 35°26' E 139°41'0 0.0
2017-Jan-31 07:32N 35°26' E 139°41'2 2.4
2017-Jan-31 06:33N 35°26' E 139°44'6 5.7
2017-Jan-31 05:33N 35°29' E 139°50'8 7.7
2017-Jan-31 04:33N 35°36' E 139°46'0 0.3
2017-Jan-31 03:33N 35°36' E 139°46'0 0.0
2017-Jan-31 02:33N 35°36' E 139°46'0 0.0
2017-Jan-31 01:33N 35°36' E 139°46'0 0.0
2017-Jan-31 00:33N 35°36' E 139°46'0 0.0
2017-Jan-30 23:24N 35°36' E 139°46'0 0.0
2017-Jan-30 22:33N 35°36' E 139°46'0 0.0
2017-Jan-30 21:33N 35°36' E 139°46'0 0.0
2017-Jan-30 20:33N 35°36' E 139°46'0 0.0
2017-Jan-30 19:33N 35°36' E 139°46'0 0.0
2017-Jan-30 18:30N 35°36' E 139°46'0 0.0
2017-Jan-30 17:33N 35°36' E 139°46'0 0.0
2017-Jan-30 16:33N 35°36' E 139°46'0 0.0
2017-Jan-30 15:33N 35°36' E 139°46'0 0.0
2017-Jan-30 14:33N 35°36' E 139°46'0 0.0
2017-Jan-30 13:33N 35°36' E 139°46'0 0.0
2017-Jan-30 12:33N 35°36' E 139°46'0 0.0
2017-Jan-30 11:33N 35°36' E 139°46'0 0.0
2017-Jan-30 10:30N 35°36' E 139°46'0 0.0
2017-Jan-30 09:30N 35°36' E 139°46'0 0.0
2017-Jan-30 08:33N 35°36' E 139°46'0 0.0
2017-Jan-30 07:33N 35°36' E 139°46'0 0.0
2017-Jan-30 06:30N 35°36' E 139°46'0 0.0
2017-Jan-30 05:30N 35°36' E 139°46'0 0.0
2017-Jan-30 04:30N 35°36' E 139°46'0 0.0
2017-Jan-30 03:33N 35°36' E 139°46'0 0.0
2017-Jan-30 02:27N 35°36' E 139°46'0 0.0
2017-Jan-30 01:33N 35°36' E 139°46'0 0.0
2017-Jan-30 00:27N 35°36' E 139°46'0 0.0
2017-Jan-29 23:33N 35°36' E 139°46'7 6.6
2017-Jan-29 22:33N 35°31' E 139°52'1413.9
2017-Jan-29 21:33N 35°19' E 139°44'1010.0
2017-Jan-29 20:33N 35°09' E 139°46'1110.6
2017-Jan-29 19:34N 35°01' E 139°38'  
Track history (hours):
 
Tides and Currents Weather Stations Pressure Air Temp Water Temp Dewpoint Dewpoint Depression Visibility Wind Speed Wind Dir Waves Ship Positions

Wan Hai 273

Last reported at 2017-Feb-06 00:20 UTC. Time now 2017-Feb-24 02:07 UTC.
Position N 22°20' E 114°07'.
Warning: this ship's position is 18 days out of date.

Length 172 m; draft 7.2 m.

Type: Cargo ship. MMSI: 566406000.

Date/timePositionNaut miles runAvg speedWind from/ knotsBaromVisibWave heightAir tempDewpointWater temp
2017-Feb-06 00:20N 22°20' E 114°07'69213.6
2017-Feb-03 21:29N 31°05' E 122°31'1313.6
2017-Feb-03 20:34N 31°07' E 122°16'1514.8
2017-Feb-03 19:33N 31°15' E 122°01'1414.3
2017-Feb-03 18:34N 31°19' E 121°45'5 4.8
2017-Feb-03 17:31N 31°20' E 121°39'0 0.0
2017-Feb-03 16:31N 31°20' E 121°39'0 0.0
2017-Feb-03 15:31N 31°20' E 121°39'0 0.0
2017-Feb-03 14:31N 31°20' E 121°39'0 0.0
2017-Feb-03 13:31N 31°20' E 121°39'0 0.0
2017-Feb-03 12:31N 31°20' E 121°39'0 0.0
2017-Feb-03 11:31N 31°20' E 121°39'0 0.0
2017-Feb-03 10:31N 31°20' E 121°39'0 0.0
2017-Feb-03 09:31N 31°20' E 121°39'0 0.0
2017-Feb-03 08:31N 31°20' E 121°39'0 0.0
2017-Feb-03 07:31N 31°20' E 121°39'0 0.0
2017-Feb-03 06:28N 31°20' E 121°39'2 2.4
2017-Feb-03 05:34N 31°20' E 121°42'1111.4
2017-Feb-03 04:33N 31°16' E 121°54'1010.1
2017-Feb-03 03:33N 31°14' E 122°06'8 8.1
2017-Feb-03 02:33N 31°09' E 122°14'  
2017-Jan-31 20:23N 34°60' E 139°31'1518.6
2017-Jan-31 19:33N 35°10' E 139°45'1212.1
2017-Jan-31 18:33N 35°22' E 139°42'5 4.8
2017-Jan-31 17:33N 35°26' E 139°41'0 0.0
2017-Jan-31 16:32N 35°26' E 139°41'0 0.0
2017-Jan-31 15:32N 35°26' E 139°41'0 0.0
2017-Jan-31 14:32N 35°26' E 139°41'0 0.0
2017-Jan-31 13:32N 35°26' E 139°41'0 0.0
2017-Jan-31 12:32N 35°26' E 139°41'0 0.0
2017-Jan-31 11:32N 35°26' E 139°41'0 0.0
2017-Jan-31 10:32N 35°26' E 139°41'0 0.0
2017-Jan-31 09:32N 35°26' E 139°41'0 0.0
2017-Jan-31 08:32N 35°26' E 139°41'0 0.0
2017-Jan-31 07:32N 35°26' E 139°41'2 2.4
2017-Jan-31 06:33N 35°26' E 139°44'6 5.7
2017-Jan-31 05:33N 35°29' E 139°50'8 7.7
2017-Jan-31 04:33N 35°36' E 139°46'0 0.3
2017-Jan-31 03:33N 35°36' E 139°46'0 0.0
2017-Jan-31 02:33N 35°36' E 139°46'0 0.0
2017-Jan-31 01:33N 35°36' E 139°46'0 0.0
2017-Jan-31 00:33N 35°36' E 139°46'0 0.0
2017-Jan-30 23:24N 35°36' E 139°46'0 0.0
2017-Jan-30 22:33N 35°36' E 139°46'0 0.0
2017-Jan-30 21:33N 35°36' E 139°46'0 0.0
2017-Jan-30 20:33N 35°36' E 139°46'0 0.0
2017-Jan-30 19:33N 35°36' E 139°46'0 0.0
2017-Jan-30 18:30N 35°36' E 139°46'0 0.0
2017-Jan-30 17:33N 35°36' E 139°46'0 0.0
2017-Jan-30 16:33N 35°36' E 139°46'0 0.0
2017-Jan-30 15:33N 35°36' E 139°46'0 0.0
2017-Jan-30 14:33N 35°36' E 139°46'0 0.0
2017-Jan-30 13:33N 35°36' E 139°46'0 0.0
2017-Jan-30 12:33N 35°36' E 139°46'0 0.0
2017-Jan-30 11:33N 35°36' E 139°46'0 0.0
2017-Jan-30 10:30N 35°36' E 139°46'0 0.0
2017-Jan-30 09:30N 35°36' E 139°46'0 0.0
2017-Jan-30 08:33N 35°36' E 139°46'0 0.0
2017-Jan-30 07:33N 35°36' E 139°46'0 0.0
2017-Jan-30 06:30N 35°36' E 139°46'0 0.0
2017-Jan-30 05:30N 35°36' E 139°46'0 0.0
2017-Jan-30 04:30N 35°36' E 139°46'0 0.0
2017-Jan-30 03:33N 35°36' E 139°46'0 0.0
2017-Jan-30 02:27N 35°36' E 139°46'0 0.0
2017-Jan-30 01:33N 35°36' E 139°46'0 0.0
2017-Jan-30 00:27N 35°36' E 139°46'0 0.0
2017-Jan-29 23:33N 35°36' E 139°46'7 6.6
2017-Jan-29 22:33N 35°31' E 139°52'1413.9
2017-Jan-29 21:33N 35°19' E 139°44'1010.0
2017-Jan-29 20:33N 35°09' E 139°46'1110.6
2017-Jan-29 19:34N 35°01' E 139°38'  

Dump ship's entire track history